createdAt,value
2022-11-21T00:00:06.454Z,85.43
2022-11-21T00:01:06.431Z,85.85
2022-11-21T00:02:06.461Z,85.74
2022-11-21T00:03:06.427Z,85.74
2022-11-21T00:04:06.449Z,85.64
2022-11-21T00:05:06.385Z,85.74
2022-11-21T00:06:06.379Z,85.53
2022-11-21T00:07:06.419Z,85.74
2022-11-21T00:08:06.354Z,85.64
2022-11-21T00:09:06.445Z,85.85
2022-11-21T00:10:06.377Z,85.50
2022-11-21T00:11:06.311Z,85.50
2022-11-21T00:12:06.314Z,85.02
2022-11-21T00:13:06.281Z,85.08
2022-11-21T00:14:06.273Z,85.43
2022-11-21T00:15:06.265Z,85.50
2022-11-21T00:16:06.344Z,85.08
2022-11-21T00:17:06.261Z,85.12
2022-11-21T00:18:06.268Z,85.50
2022-11-21T00:19:06.221Z,85.53
2022-11-21T00:20:06.204Z,85.53
2022-11-21T00:21:06.226Z,85.85
2022-11-21T00:22:06.227Z,85.74
2022-11-21T00:23:06.183Z,85.43
2022-11-21T00:24:06.209Z,85.53
2022-11-21T00:25:06.186Z,85.60
2022-11-21T00:26:06.141Z,85.64
2022-11-21T00:27:06.174Z,85.81
2022-11-21T00:28:06.188Z,85.85
2022-11-21T00:29:06.110Z,85.53
2022-11-21T00:30:06.118Z,85.08
2022-11-21T00:31:06.077Z,85.08
2022-11-21T00:32:06.078Z,85.33
2022-11-21T00:33:06.074Z,85.43
2022-11-21T00:34:06.087Z,85.60
2022-11-21T00:35:06.030Z,85.95
2022-11-21T00:36:06.030Z,85.91
2022-11-21T00:37:06.031Z,85.95
2022-11-21T00:38:06.000Z,85.91
2022-11-21T00:39:06.061Z,85.85
2022-11-21T00:40:05.993Z,85.81
2022-11-21T00:41:05.968Z,85.81
2022-11-21T00:42:05.990Z,85.71
2022-11-21T00:43:05.955Z,85.81
2022-11-21T00:44:05.949Z,85.50
2022-11-21T00:45:05.988Z,85.50
2022-11-21T00:46:05.953Z,85.91
2022-11-21T00:47:05.916Z,85.71
2022-11-21T00:48:05.888Z,85.91
2022-11-21T00:49:05.888Z,85.81
2022-11-21T00:50:05.883Z,85.50
2022-11-21T00:51:05.893Z,85.60
2022-11-21T00:52:05.948Z,85.29
2022-11-21T00:53:05.865Z,85.08
2022-11-21T00:54:05.833Z,85.29
2022-11-21T00:55:05.837Z,85.39
2022-11-21T00:56:05.834Z,85.39
2022-11-21T00:57:05.793Z,85.19
2022-11-21T00:58:05.829Z,85.50
2022-11-21T00:59:05.790Z,85.71
2022-11-21T01:00:05.768Z,85.71
2022-11-21T01:01:05.848Z,85.60
2022-11-21T01:02:05.752Z,85.02
2022-11-21T01:03:05.752Z,85.02
2022-11-21T01:04:05.826Z,85.29
2022-11-21T01:05:05.713Z,85.19
2022-11-21T01:06:05.692Z,85.19
2022-11-21T01:07:05.728Z,85.29
2022-11-21T01:08:05.673Z,85.19
2022-11-21T01:09:05.673Z,85.43
2022-11-21T01:10:05.698Z,85.53
2022-11-21T01:11:05.647Z,84.98
2022-11-21T01:12:05.619Z,85.43
2022-11-21T01:13:05.628Z,85.43
2022-11-21T01:14:05.606Z,85.71
2022-11-21T01:15:05.577Z,85.74
2022-11-21T01:16:05.611Z,85.64
2022-11-21T01:17:05.570Z,85.64
2022-11-21T01:18:05.558Z,85.60
2022-11-21T01:19:05.554Z,85.64
2022-11-21T01:20:05.525Z,85.64
2022-11-21T01:21:05.523Z,85.64
2022-11-21T01:22:05.615Z,85.53
2022-11-21T01:23:05.518Z,85.64
2022-11-21T01:24:05.523Z,85.64
2022-11-21T01:25:05.494Z,85.64
2022-11-21T01:26:05.458Z,85.64
2022-11-21T01:27:05.538Z,85.74
2022-11-21T01:28:05.515Z,85.85
2022-11-21T01:29:05.472Z,85.85
2022-11-21T01:30:05.409Z,85.53
2022-11-21T01:31:05.415Z,85.33
2022-11-21T01:32:05.406Z,85.64
2022-11-21T01:33:05.402Z,85.74
2022-11-21T01:34:05.462Z,85.64
2022-11-21T01:35:05.379Z,85.85
2022-11-21T01:36:05.367Z,85.64
2022-11-21T01:37:05.342Z,85.64
2022-11-21T01:38:05.339Z,85.85
2022-11-21T01:39:05.309Z,85.64
2022-11-21T01:40:05.461Z,85.74
2022-11-21T01:41:05.295Z,85.74
2022-11-21T01:42:05.291Z,85.85
2022-11-21T01:43:05.301Z,85.53
2022-11-21T01:44:05.257Z,85.53
2022-11-21T01:45:05.276Z,85.64
2022-11-21T01:46:05.261Z,85.53
2022-11-21T01:47:05.231Z,85.33
2022-11-21T01:48:05.248Z,85.36
2022-11-21T01:49:05.219Z,85.43
2022-11-21T01:50:08.180Z,85.43
2022-11-21T01:51:06.217Z,85.47
2022-11-21T01:52:05.189Z,85.53
2022-11-21T01:53:05.175Z,85.57
2022-11-21T01:54:05.242Z,85.57
2022-11-21T01:55:05.233Z,85.68
2022-11-21T01:56:05.140Z,85.78
2022-11-21T01:57:05.271Z,85.78
2022-11-21T01:58:05.225Z,85.88
2022-11-21T01:59:05.162Z,85.78
2022-11-21T02:00:05.092Z,85.78
2022-11-21T02:01:05.170Z,85.64
2022-11-21T02:02:05.057Z,85.68
2022-11-21T02:03:05.089Z,85.88
2022-11-21T02:04:05.024Z,85.68
2022-11-21T02:05:05.055Z,85.68
2022-11-21T02:06:05.026Z,85.68
2022-11-21T02:07:05.039Z,85.68
2022-11-21T02:08:04.987Z,85.78
2022-11-21T02:09:05.019Z,85.57
2022-11-21T02:10:04.976Z,85.02
2022-11-21T02:11:04.985Z,85.68
2022-11-21T02:12:04.939Z,85.22
2022-11-21T02:13:04.945Z,85.26
2022-11-21T02:14:04.959Z,85.43
2022-11-21T02:15:04.942Z,85.12
2022-11-21T02:16:04.898Z,85.33
2022-11-21T02:17:04.940Z,85.64
2022-11-21T02:18:04.903Z,85.47
2022-11-21T02:19:04.863Z,85.43
2022-11-21T02:20:04.887Z,85.43
2022-11-21T02:21:04.872Z,85.64
2022-11-21T02:22:04.826Z,85.33
2022-11-21T02:23:04.830Z,85.43
2022-11-21T02:24:04.866Z,85.12
2022-11-21T02:25:04.802Z,85.74
2022-11-21T02:26:04.785Z,85.74
2022-11-21T02:27:04.852Z,85.74
2022-11-21T02:28:04.756Z,85.85
2022-11-21T02:29:04.788Z,85.85
2022-11-21T02:30:04.753Z,85.85
2022-11-21T02:31:04.725Z,85.95
2022-11-21T02:32:04.721Z,85.85
2022-11-21T02:33:04.806Z,85.95
2022-11-21T02:34:04.703Z,85.85
2022-11-21T02:35:04.750Z,85.74
2022-11-21T02:36:04.676Z,85.33
2022-11-21T02:37:04.670Z,85.12
2022-11-21T02:38:04.642Z,85.43
2022-11-21T02:39:04.700Z,85.22
2022-11-21T02:40:04.637Z,85.33
2022-11-21T02:41:04.630Z,85.43
2022-11-21T02:42:04.604Z,85.53
2022-11-21T02:43:04.596Z,85.53
2022-11-21T02:44:04.585Z,85.50
2022-11-21T02:45:04.703Z,85.33
2022-11-21T02:46:04.588Z,85.33
2022-11-21T02:47:04.565Z,85.39
2022-11-21T02:48:04.734Z,85.33
2022-11-21T02:49:04.548Z,85.43
2022-11-21T02:50:04.585Z,85.12
2022-11-21T02:51:04.574Z,85.02
2022-11-21T02:52:04.508Z,85.43
2022-11-21T02:53:04.479Z,85.29
2022-11-21T02:54:04.485Z,85.43
2022-11-21T02:55:04.579Z,85.12
2022-11-21T02:56:04.446Z,85.43
2022-11-21T02:57:04.464Z,85.53
2022-11-21T02:58:05.459Z,85.29
2022-11-21T02:59:04.404Z,85.08
2022-11-21T03:00:04.412Z,85.33
2022-11-21T03:01:04.448Z,85.43
2022-11-21T03:02:04.369Z,85.64
2022-11-21T03:03:04.466Z,85.74
2022-11-21T03:04:04.388Z,85.74
2022-11-21T03:05:04.385Z,85.53
2022-11-21T03:06:04.328Z,85.39
2022-11-21T03:07:04.399Z,85.43
2022-11-21T03:08:04.325Z,85.43
2022-11-21T03:09:04.359Z,85.43
2022-11-21T03:10:04.311Z,85.33
2022-11-21T03:11:04.448Z,85.33
2022-11-21T03:12:04.304Z,85.64
2022-11-21T03:13:04.258Z,85.33
2022-11-21T03:14:04.251Z,85.47
2022-11-21T03:15:04.260Z,85.36
2022-11-21T03:16:04.221Z,85.26
2022-11-21T03:17:04.220Z,85.16
2022-11-21T03:18:04.207Z,85.36
2022-11-21T03:19:04.240Z,85.36
2022-11-21T03:20:04.170Z,85.26
2022-11-21T03:21:04.325Z,85.16
2022-11-21T03:22:04.168Z,85.20
2022-11-21T03:23:04.139Z,84.99
2022-11-21T03:24:04.142Z,85.05
2022-11-21T03:25:04.132Z,85.16
2022-11-21T03:26:04.132Z,85.05
2022-11-21T03:27:04.178Z,85.41
2022-11-21T03:28:04.094Z,85.51
2022-11-21T03:29:04.119Z,85.10
2022-11-21T03:30:04.058Z,85.10
2022-11-21T03:31:04.188Z,85.16
2022-11-21T03:32:04.150Z,85.20
2022-11-21T03:33:04.079Z,85.26
2022-11-21T03:34:04.101Z,85.10
2022-11-21T03:35:04.015Z,85.20
2022-11-21T03:36:04.020Z,85.10
2022-11-21T03:37:04.088Z,85.30
2022-11-21T03:38:03.976Z,85.26
2022-11-21T03:39:04.066Z,85.36
2022-11-21T03:40:03.971Z,84.99
2022-11-21T03:41:03.947Z,85.30
2022-11-21T03:42:03.964Z,85.30
2022-11-21T03:43:04.005Z,85.47
2022-11-21T03:44:03.898Z,85.20
2022-11-21T03:45:03.932Z,85.47
2022-11-21T03:46:03.890Z,85.47
2022-11-21T03:47:03.884Z,85.36
2022-11-21T03:48:03.888Z,85.30
2022-11-21T03:49:03.866Z,85.20
2022-11-21T03:50:03.871Z,85.51
2022-11-21T03:51:03.951Z,85.36
2022-11-21T03:52:03.821Z,85.41
2022-11-21T03:53:03.842Z,85.41
2022-11-21T03:54:03.797Z,85.51
2022-11-21T03:55:03.785Z,85.41
2022-11-21T03:56:03.774Z,85.41
2022-11-21T03:57:03.823Z,85.20
2022-11-21T03:58:03.745Z,85.51
2022-11-21T03:59:03.744Z,85.20
2022-11-21T04:00:03.798Z,85.61
2022-11-21T04:01:03.805Z,85.41
2022-11-21T04:02:03.904Z,85.41
2022-11-21T04:03:03.768Z,85.72
2022-11-21T04:04:03.711Z,85.51
2022-11-21T04:05:03.661Z,85.61
2022-11-21T04:06:03.665Z,85.20
2022-11-21T04:07:03.743Z,85.41
2022-11-21T04:08:03.664Z,85.41
2022-11-21T04:09:03.683Z,85.41
2022-11-21T04:10:03.621Z,85.30
2022-11-21T04:11:03.654Z,85.30
2022-11-21T04:12:07.470Z,85.30
2022-11-21T04:13:03.592Z,85.30
2022-11-21T04:14:03.584Z,85.41
2022-11-21T04:15:04.624Z,85.41
2022-11-21T04:16:03.554Z,85.61
2022-11-21T04:17:03.570Z,85.61
2022-11-21T04:18:03.548Z,85.72
2022-11-21T04:19:03.539Z,85.30
2022-11-21T04:20:03.540Z,85.41
2022-11-21T04:21:03.692Z,85.51
2022-11-21T04:22:03.616Z,85.47
2022-11-21T04:23:03.475Z,85.20
2022-11-21T04:24:03.487Z,85.36
2022-11-21T04:25:03.472Z,85.05
2022-11-21T04:26:03.439Z,85.36
2022-11-21T04:27:03.458Z,85.47
2022-11-21T04:28:03.458Z,85.57
2022-11-21T04:29:03.460Z,85.41
2022-11-21T04:30:03.423Z,85.26
2022-11-21T04:31:07.002Z,85.57
2022-11-21T04:32:04.431Z,85.72
2022-11-21T04:33:03.382Z,85.05
2022-11-21T04:34:03.382Z,85.26
2022-11-21T04:35:03.357Z,85.30
2022-11-21T04:36:03.347Z,85.68
2022-11-21T04:37:07.510Z,85.26
2022-11-21T04:38:04.340Z,85.47
2022-11-21T04:39:03.299Z,85.36
2022-11-21T04:40:03.285Z,85.57
2022-11-21T04:41:03.289Z,85.47
2022-11-21T04:42:03.280Z,85.30
2022-11-21T04:43:03.255Z,85.26
2022-11-21T04:44:03.354Z,85.30
2022-11-21T04:45:03.237Z,85.57
2022-11-21T04:46:03.231Z,85.68
2022-11-21T04:47:05.575Z,85.30
2022-11-21T04:48:03.202Z,85.68
2022-11-21T04:49:03.201Z,85.61
2022-11-21T04:50:03.223Z,85.30
2022-11-21T04:51:03.153Z,85.68
2022-11-21T04:52:03.156Z,85.26
2022-11-21T04:53:03.149Z,85.57
2022-11-21T04:54:03.128Z,85.61
2022-11-21T04:55:03.137Z,85.61
2022-11-21T04:56:03.277Z,85.68
2022-11-21T04:57:03.107Z,85.68
2022-11-21T04:58:03.079Z,85.20
2022-11-21T04:59:03.087Z,85.36
2022-11-21T05:00:03.084Z,85.26
2022-11-21T05:01:03.090Z,85.57
2022-11-21T05:02:03.264Z,85.68
2022-11-21T05:03:03.037Z,85.68
2022-11-21T05:04:03.032Z,85.57
2022-11-21T05:05:03.000Z,85.47
2022-11-21T05:06:02.999Z,85.57
2022-11-21T05:07:03.079Z,85.57
2022-11-21T05:08:03.058Z,85.64
2022-11-21T05:09:02.987Z,85.57
2022-11-21T05:10:02.964Z,85.57
2022-11-21T05:11:02.935Z,85.61
2022-11-21T05:12:02.972Z,85.57
2022-11-21T05:13:02.956Z,85.57
2022-11-21T05:14:03.077Z,85.12
2022-11-21T05:15:02.890Z,85.26
2022-11-21T05:16:02.882Z,85.57
2022-11-21T05:17:02.880Z,85.68
2022-11-21T05:18:02.884Z,85.36
2022-11-21T05:19:02.847Z,85.26
2022-11-21T05:20:02.890Z,85.68
2022-11-21T05:21:02.862Z,85.26
2022-11-21T05:22:02.815Z,85.36
2022-11-21T05:23:02.815Z,85.57
2022-11-21T05:24:02.798Z,85.16
2022-11-21T05:25:02.781Z,85.26
2022-11-21T05:26:02.844Z,85.47
2022-11-21T05:27:02.774Z,85.47
2022-11-21T05:28:02.772Z,85.43
2022-11-21T05:29:02.756Z,85.12
2022-11-21T05:30:02.735Z,85.22
2022-11-21T05:31:02.740Z,85.33
2022-11-21T05:32:02.787Z,85.43
2022-11-21T05:33:02.695Z,85.43
2022-11-21T05:34:02.687Z,85.12
2022-11-21T05:35:03.675Z,85.02
2022-11-21T05:36:02.652Z,85.12
2022-11-21T05:37:02.663Z,85.12
2022-11-21T05:38:02.852Z,85.12
2022-11-21T05:39:02.630Z,85.43
2022-11-21T05:40:02.612Z,85.43
2022-11-21T05:41:02.611Z,85.43
2022-11-21T05:42:03.353Z,85.43
2022-11-21T05:43:02.581Z,85.33
2022-11-21T05:44:02.810Z,85.43
2022-11-21T05:45:02.605Z,85.12
2022-11-21T05:46:02.541Z,85.02
2022-11-21T05:47:02.564Z,85.43
2022-11-21T05:48:02.533Z,85.22
2022-11-21T05:49:02.535Z,85.22
2022-11-21T05:50:02.654Z,85.12
2022-11-21T05:51:02.494Z,85.12
2022-11-21T05:52:02.518Z,85.22
2022-11-21T05:53:02.477Z,85.02
2022-11-21T05:54:02.490Z,85.22
2022-11-21T05:55:02.470Z,85.43
2022-11-21T05:56:02.476Z,85.43
2022-11-21T05:57:02.426Z,85.33
2022-11-21T05:58:02.418Z,85.02
2022-11-21T05:59:02.410Z,85.60
2022-11-21T06:00:02.388Z,85.12
2022-11-21T06:01:02.525Z,85.39
2022-11-21T06:02:03.687Z,85.29
2022-11-21T06:03:02.407Z,85.60
2022-11-21T06:04:02.346Z,85.39
2022-11-21T06:05:02.598Z,85.29
2022-11-21T06:06:02.346Z,85.39
2022-11-21T06:07:02.434Z,85.39
2022-11-21T06:08:02.364Z,85.60
2022-11-21T06:09:02.405Z,85.08
2022-11-21T06:10:02.306Z,84.98
2022-11-21T06:11:02.266Z,85.19
2022-11-21T06:12:02.289Z,85.19
2022-11-21T06:13:02.256Z,85.08
2022-11-21T06:14:02.267Z,85.14
2022-11-21T06:15:02.262Z,85.14
2022-11-21T06:16:02.227Z,85.14
2022-11-21T06:17:02.207Z,85.14
2022-11-21T06:18:02.192Z,85.04
2022-11-21T06:19:02.170Z,85.14
2022-11-21T06:20:02.216Z,85.04
2022-11-21T06:21:02.153Z,85.25
2022-11-21T06:22:02.158Z,85.35
2022-11-21T06:23:02.155Z,85.25
2022-11-21T06:24:02.121Z,85.46
2022-11-21T06:25:02.107Z,85.25
2022-11-21T06:26:02.116Z,85.56
2022-11-21T06:27:02.108Z,85.35
2022-11-21T06:28:02.072Z,85.35
2022-11-21T06:29:02.063Z,85.31
2022-11-21T06:30:02.041Z,85.00
2022-11-21T06:31:02.073Z,84.80
2022-11-21T06:32:02.196Z,84.48
2022-11-21T06:33:02.122Z,84.69
2022-11-21T06:34:02.032Z,84.69
2022-11-21T06:35:01.992Z,84.48
2022-11-21T06:36:02.029Z,84.59
2022-11-21T06:37:01.998Z,84.80
2022-11-21T06:38:02.042Z,84.59
2022-11-21T06:39:01.957Z,84.48
2022-11-21T06:40:01.943Z,84.38
2022-11-21T06:41:02.051Z,84.28
2022-11-21T06:42:01.927Z,84.28
2022-11-21T06:43:01.920Z,84.28
2022-11-21T06:44:02.120Z,84.59
2022-11-21T06:45:01.867Z,84.59
2022-11-21T06:46:02.882Z,84.69
2022-11-21T06:47:01.971Z,84.80
2022-11-21T06:48:01.842Z,84.80
2022-11-21T06:49:01.852Z,84.52
2022-11-21T06:50:02.424Z,84.69
2022-11-21T06:51:01.845Z,84.38
2022-11-21T06:52:01.799Z,84.69
2022-11-21T06:53:01.830Z,84.59
2022-11-21T06:54:01.937Z,84.59
2022-11-21T06:55:01.764Z,84.69
2022-11-21T06:56:01.804Z,84.38
2022-11-21T06:57:01.811Z,84.38
2022-11-21T06:58:02.288Z,84.55
2022-11-21T06:59:01.921Z,84.65
2022-11-21T07:00:01.819Z,84.69
2022-11-21T07:01:01.736Z,84.13
2022-11-21T07:02:03.320Z,84.65
2022-11-21T07:03:03.132Z,84.44
2022-11-21T07:04:01.661Z,84.23
2022-11-21T07:05:01.750Z,84.34
2022-11-21T07:06:01.646Z,84.34
2022-11-21T07:07:02.030Z,83.93
2022-11-21T07:08:01.755Z,84.38
2022-11-21T07:10:02.988Z,84.38
2022-11-21T07:11:24.018Z,84.38
2022-11-21T07:12:02.722Z,84.38
2022-11-21T07:13:01.627Z,84.07
2022-11-21T07:14:06.254Z,83.97
2022-11-21T07:15:02.714Z,84.59
2022-11-21T07:16:01.565Z,84.69
2022-11-21T07:17:01.778Z,84.23
2022-11-21T07:18:01.685Z,83.97
2022-11-21T07:19:01.806Z,84.23
2022-11-21T07:20:01.672Z,84.23
2022-11-21T07:21:01.556Z,84.03
2022-11-21T07:22:01.588Z,83.93
2022-11-21T07:23:01.602Z,84.34
2022-11-21T07:24:01.702Z,84.03
2022-11-21T07:25:01.450Z,83.93
2022-11-21T07:26:01.487Z,83.93
2022-11-21T07:27:01.726Z,84.30
2022-11-21T07:28:01.418Z,84.20
2022-11-21T07:29:01.421Z,83.89
2022-11-21T07:30:01.406Z,83.99
2022-11-21T07:31:01.586Z,83.83
2022-11-21T07:32:01.563Z,84.30
2022-11-21T07:33:01.509Z,83.89
2022-11-21T07:34:01.433Z,84.20
2022-11-21T07:35:01.367Z,84.61
2022-11-21T07:36:01.783Z,84.30
2022-11-21T07:37:05.035Z,84.30
2022-11-21T07:38:01.646Z,84.30
2022-11-21T07:39:01.397Z,84.20
2022-11-21T07:40:01.577Z,84.20
2022-11-21T07:41:01.391Z,84.30
2022-11-21T07:42:01.255Z,84.30
2022-11-21T07:43:01.248Z,84.47
2022-11-21T07:44:01.923Z,84.37
2022-11-21T07:45:01.358Z,84.16
2022-11-21T07:46:01.366Z,84.37
2022-11-21T07:47:01.188Z,84.47
2022-11-21T07:48:01.184Z,84.06
2022-11-21T07:49:03.512Z,83.95
2022-11-21T07:50:01.177Z,84.12
2022-11-21T07:51:01.330Z,84.22
2022-11-21T07:52:01.171Z,83.91
2022-11-21T07:53:01.194Z,84.12
2022-11-21T07:54:01.124Z,84.43
2022-11-21T07:55:01.125Z,84.43
2022-11-21T07:56:01.287Z,83.91
2022-11-21T07:57:01.867Z,84.22
2022-11-21T07:58:01.914Z,84.22
2022-11-21T07:59:04.258Z,83.87
2022-11-21T08:00:01.048Z,83.46
2022-11-21T08:01:01.127Z,84.08
2022-11-21T08:02:02.475Z,83.77
2022-11-21T08:03:01.175Z,83.87
2022-11-21T08:04:02.108Z,83.36
2022-11-21T08:05:01.181Z,83.77
2022-11-21T08:06:01.040Z,83.67
2022-11-21T08:07:02.022Z,83.46
2022-11-21T08:08:01.115Z,83.67
2022-11-21T08:09:00.994Z,83.87
2022-11-21T08:10:00.968Z,83.36
2022-11-21T08:11:01.005Z,84.08
2022-11-21T08:12:00.956Z,83.87
2022-11-21T08:13:00.936Z,84.08
2022-11-21T08:14:00.948Z,83.98
2022-11-21T08:15:00.898Z,84.12
2022-11-21T08:16:00.865Z,84.12
2022-11-21T08:17:01.451Z,83.91
2022-11-21T08:18:00.859Z,83.91
2022-11-21T08:19:00.889Z,83.91
2022-11-21T08:20:00.888Z,83.91
2022-11-21T08:21:00.838Z,84.01
2022-11-21T08:22:00.955Z,84.43
2022-11-21T08:23:00.991Z,84.22
2022-11-21T08:24:00.760Z,84.22
2022-11-21T08:25:01.078Z,84.12
2022-11-21T08:26:00.979Z,84.01
2022-11-21T08:27:00.805Z,84.01
2022-11-21T08:28:00.795Z,83.95
2022-11-21T08:29:00.942Z,84.01
2022-11-21T08:30:00.697Z,83.91
2022-11-21T08:31:00.733Z,84.16
2022-11-21T08:32:00.862Z,84.27
2022-11-21T08:33:00.786Z,84.27
2022-11-21T08:34:00.929Z,83.91
2022-11-21T08:35:00.669Z,84.01
2022-11-21T08:36:00.829Z,84.01
2022-11-21T08:37:00.636Z,83.81
2022-11-21T08:38:00.996Z,84.01
2022-11-21T08:39:00.597Z,83.91
2022-11-21T08:40:00.675Z,84.22
2022-11-21T08:41:00.632Z,84.22
2022-11-21T08:42:00.568Z,83.91
2022-11-21T08:43:00.899Z,83.71
2022-11-21T08:44:01.312Z,83.71
2022-11-21T08:45:00.835Z,83.91
2022-11-21T08:46:00.623Z,84.01
2022-11-21T08:47:00.833Z,83.71
2022-11-21T08:48:00.544Z,84.01
2022-11-21T08:49:00.681Z,83.71
2022-11-21T08:50:08.572Z,83.91
2022-11-21T08:51:01.572Z,83.81
2022-11-21T08:52:00.799Z,84.12
2022-11-21T08:53:00.574Z,83.91
2022-11-21T08:54:00.479Z,83.91
2022-11-21T08:55:00.862Z,83.71
2022-11-21T08:56:04.127Z,83.71
2022-11-21T08:57:01.425Z,83.81
2022-11-21T08:58:00.550Z,83.75
2022-11-21T08:59:00.471Z,83.50
2022-11-21T09:00:00.686Z,83.91
2022-11-21T09:01:00.560Z,83.81
2022-11-21T09:02:02.077Z,83.81
2022-11-21T09:03:00.369Z,83.91
2022-11-21T09:04:00.324Z,84.12
2022-11-21T09:05:00.456Z,83.71
2022-11-21T09:06:00.517Z,84.01
2022-11-21T09:07:00.583Z,83.81
2022-11-21T09:08:00.801Z,83.50
2022-11-21T09:09:00.306Z,83.50
2022-11-21T09:10:00.364Z,83.61
2022-11-21T09:11:00.258Z,83.56
2022-11-21T09:12:00.359Z,83.46
2022-11-21T09:13:00.274Z,83.56
2022-11-21T09:14:00.432Z,83.56
2022-11-21T09:15:00.379Z,83.42
2022-11-21T09:16:00.193Z,83.11
2022-11-21T09:17:02.323Z,83.01
2022-11-21T09:18:00.165Z,83.07
2022-11-21T09:19:00.435Z,82.97
2022-11-21T09:20:00.411Z,82.97
2022-11-21T09:21:00.324Z,83.07
2022-11-21T09:22:00.555Z,82.87
2022-11-21T09:23:00.296Z,82.97
2022-11-21T09:24:00.143Z,82.87
2022-11-21T09:25:00.283Z,82.83
2022-11-21T09:26:00.292Z,82.83
2022-11-21T09:27:00.186Z,83.04
2022-11-21T09:28:00.067Z,82.93
2022-11-21T09:29:00.096Z,83.04
2022-11-21T09:30:00.078Z,82.93
2022-11-21T09:31:00.168Z,83.04
2022-11-21T09:32:00.492Z,83.25
2022-11-21T09:33:00.183Z,83.14
2022-11-21T09:34:00.183Z,83.14
2022-11-21T09:35:00.373Z,83.55
2022-11-21T09:35:59.991Z,83.34
2022-11-21T09:36:59.975Z,83.45
2022-11-21T09:38:00.454Z,83.41
2022-11-21T09:38:59.961Z,83.45
2022-11-21T09:40:00.019Z,83.45
2022-11-21T09:40:59.958Z,83.55
2022-11-21T09:42:00.383Z,83.55
2022-11-21T09:43:00.085Z,83.45
2022-11-21T09:44:00.601Z,83.45
2022-11-21T09:45:00.021Z,83.45
2022-11-21T09:45:59.982Z,83.34
2022-11-21T09:47:00.063Z,83.55
2022-11-21T09:48:00.321Z,83.34
2022-11-21T09:49:00.033Z,83.34
2022-11-21T09:50:00.169Z,83.20
2022-11-21T09:50:59.866Z,83.31
2022-11-21T09:51:59.824Z,83.51
2022-11-21T09:53:00.078Z,83.14
2022-11-21T09:54:00.053Z,83.41
2022-11-21T09:54:59.959Z,83.51
2022-11-21T09:55:59.887Z,83.10
2022-11-21T09:56:59.730Z,83.17
2022-11-21T09:57:59.756Z,83.17
2022-11-21T09:59:00.743Z,83.17
2022-11-21T09:59:59.690Z,83.68
2022-11-21T10:00:59.985Z,83.37
2022-11-21T10:02:01.917Z,83.37
2022-11-21T10:02:59.810Z,83.48
2022-11-21T10:03:59.971Z,83.37
2022-11-21T10:05:00.461Z,83.27
2022-11-21T10:05:59.732Z,83.64
2022-11-21T10:06:59.773Z,83.23
2022-11-21T10:07:59.916Z,83.13
2022-11-21T10:08:59.725Z,83.03
2022-11-21T10:09:59.584Z,82.61
2022-11-21T10:11:01.601Z,82.92
2022-11-21T10:12:00.753Z,82.71
2022-11-21T10:12:59.635Z,83.03
2022-11-21T10:13:59.617Z,82.92
2022-11-21T10:14:59.655Z,83.03
2022-11-21T10:15:59.614Z,82.78
2022-11-21T10:16:59.599Z,82.57
2022-11-21T10:17:59.571Z,82.89
2022-11-21T10:18:59.637Z,82.78
2022-11-21T10:19:59.881Z,82.98
2022-11-21T10:20:59.538Z,82.89
2022-11-21T10:21:59.601Z,82.78
2022-11-21T10:22:59.499Z,82.78
2022-11-21T10:23:59.592Z,82.78
2022-11-21T10:24:59.434Z,82.78
2022-11-21T10:25:59.439Z,82.89
2022-11-21T10:26:59.691Z,83.40
2022-11-21T10:28:00.061Z,83.09
2022-11-21T10:28:59.619Z,82.68
2022-11-21T10:29:59.973Z,83.40
2022-11-21T10:30:59.498Z,83.29
2022-11-21T10:31:59.396Z,82.98
2022-11-21T10:32:59.487Z,83.19
2022-11-21T10:33:59.566Z,83.29
2022-11-21T10:34:59.380Z,83.13
2022-11-21T10:35:59.487Z,83.29
2022-11-21T10:36:59.494Z,83.33
2022-11-21T10:37:59.454Z,83.54
2022-11-21T10:38:59.353Z,83.13
2022-11-21T10:39:59.404Z,83.54
2022-11-21T10:40:59.210Z,83.44
2022-11-21T10:41:59.230Z,83.64
2022-11-21T10:42:59.259Z,83.13
2022-11-21T10:43:59.789Z,83.75
2022-11-21T10:44:59.356Z,83.23
2022-11-21T10:45:59.307Z,83.58
2022-11-21T10:46:59.174Z,83.33
2022-11-21T10:48:02.593Z,83.64
2022-11-21T10:49:00.335Z,83.68
2022-11-21T10:49:59.179Z,83.68
2022-11-21T10:50:59.138Z,83.89
2022-11-21T10:51:59.441Z,83.78
2022-11-21T10:52:59.078Z,83.17
2022-11-21T10:54:03.256Z,83.17
2022-11-21T10:55:00.163Z,83.13
2022-11-21T10:55:59.039Z,83.23
2022-11-21T10:56:59.888Z,83.13
2022-11-21T10:57:59.020Z,83.58
2022-11-21T10:59:00.077Z,83.48
2022-11-21T10:59:58.998Z,83.48
2022-11-21T11:00:59.068Z,83.58
2022-11-21T11:02:05.901Z,83.17
2022-11-21T11:02:58.973Z,83.27
2022-11-21T11:04:20.986Z,83.17
2022-11-21T11:04:59.966Z,83.58
2022-11-21T11:05:58.956Z,83.48
2022-11-21T11:06:58.952Z,83.37
2022-11-21T11:07:58.904Z,83.27
2022-11-21T11:08:59.048Z,83.37
2022-11-21T11:09:59.006Z,83.68
2022-11-21T11:10:59.398Z,83.17
2022-11-21T11:11:58.932Z,83.64
2022-11-21T11:13:01.657Z,83.85
2022-11-21T11:13:58.863Z,83.85
2022-11-21T11:14:59.400Z,83.23
2022-11-21T11:15:58.820Z,83.27
2022-11-21T11:16:58.807Z,83.13
2022-11-21T11:18:01.525Z,83.75
2022-11-21T11:18:59.875Z,83.68
2022-11-21T11:19:58.788Z,83.64
2022-11-21T11:20:58.843Z,83.75
2022-11-21T11:21:58.768Z,83.64
2022-11-21T11:22:59.429Z,83.13
2022-11-21T11:23:58.725Z,83.33
2022-11-21T11:25:00.776Z,83.33
2022-11-21T11:25:58.695Z,83.85
2022-11-21T11:26:58.809Z,83.71
2022-11-21T11:28:01.451Z,83.64
2022-11-21T11:28:58.660Z,83.54
2022-11-21T11:29:58.664Z,83.29
2022-11-21T11:30:59.091Z,83.09
2022-11-21T11:31:58.641Z,83.40
2022-11-21T11:32:58.615Z,83.40
2022-11-21T11:33:58.696Z,83.61
2022-11-21T11:34:58.640Z,83.19
2022-11-21T11:35:58.592Z,83.36
2022-11-21T11:36:58.977Z,83.29
2022-11-21T11:37:58.640Z,83.29
2022-11-21T11:38:58.597Z,83.19
2022-11-21T11:39:58.551Z,83.36
2022-11-21T11:40:58.532Z,83.50
2022-11-21T11:41:58.522Z,83.36
2022-11-21T11:42:58.529Z,83.50
2022-11-21T11:43:59.410Z,83.56
2022-11-21T11:44:58.482Z,83.05
2022-11-21T11:45:58.501Z,83.56
2022-11-21T11:46:58.451Z,83.47
2022-11-21T11:47:58.456Z,83.47
2022-11-21T11:49:17.905Z,83.05
2022-11-21T11:49:59.424Z,83.61
2022-11-21T11:50:58.423Z,83.61
2022-11-21T11:51:58.422Z,83.81
2022-11-21T11:52:58.426Z,83.67
2022-11-21T11:54:01.088Z,83.67
2022-11-21T11:54:58.399Z,83.05
2022-11-21T11:55:58.522Z,83.47
2022-11-21T11:56:58.338Z,83.36
2022-11-21T11:57:58.917Z,83.47
2022-11-21T11:58:58.349Z,83.36
2022-11-21T11:59:58.325Z,83.36
2022-11-21T12:00:58.980Z,83.36
2022-11-21T12:01:58.634Z,83.15
2022-11-21T12:02:58.290Z,83.56
2022-11-21T12:03:58.467Z,83.15
2022-11-21T12:04:58.265Z,83.47
2022-11-21T12:05:58.360Z,83.47
2022-11-21T12:08:40.067Z,83.05
2022-11-21T12:08:59.265Z,83.05
2022-11-21T12:09:58.205Z,83.77
2022-11-21T12:10:58.306Z,83.67
2022-11-21T12:11:58.188Z,83.47
2022-11-21T12:12:58.199Z,83.67
2022-11-21T12:13:58.251Z,83.36
2022-11-21T12:14:58.155Z,83.47
2022-11-21T12:16:04.112Z,83.26
2022-11-21T12:16:59.117Z,83.98
2022-11-21T12:17:58.105Z,83.36
2022-11-21T12:18:58.157Z,83.26
2022-11-21T12:19:58.148Z,83.36
2022-11-21T12:20:59.323Z,83.36
2022-11-21T12:21:58.056Z,83.36
2022-11-21T12:22:58.044Z,83.40
2022-11-21T12:23:58.068Z,83.40
2022-11-21T12:24:58.156Z,83.40
2022-11-21T12:25:58.095Z,83.40
2022-11-21T12:26:58.011Z,83.40
2022-11-21T12:27:58.044Z,83.71
2022-11-21T12:28:57.992Z,83.75
2022-11-21T12:29:57.976Z,83.85
2022-11-21T12:30:57.974Z,83.75
2022-11-21T12:31:57.951Z,83.23
2022-11-21T12:32:59.439Z,83.44
2022-11-21T12:33:57.941Z,83.54
2022-11-21T12:34:57.910Z,83.58
2022-11-21T12:36:14.190Z,83.64
2022-11-21T12:36:58.989Z,83.54
2022-11-21T12:37:57.886Z,83.89
2022-11-21T12:38:57.868Z,83.75
2022-11-21T12:39:58.416Z,83.64
2022-11-21T12:40:59.142Z,83.64
2022-11-21T12:41:57.845Z,83.64
2022-11-21T12:42:58.001Z,83.81
2022-11-21T12:43:57.988Z,83.64
2022-11-21T12:44:57.882Z,83.33
2022-11-21T12:45:57.937Z,83.19
2022-11-21T12:46:57.846Z,83.85
2022-11-21T12:47:57.782Z,83.71
2022-11-21T12:48:57.811Z,83.61
2022-11-21T12:49:57.740Z,83.40
2022-11-21T12:50:58.915Z,83.40
2022-11-21T12:51:57.718Z,83.29
2022-11-21T12:52:57.724Z,83.50
2022-11-21T12:53:57.730Z,83.81